Time;durP1;ratioP1;P1;durP2;ratioP2;P2;SDS_P1;SDS_P2;PMS_P1;PMS_P2;Temp;Humidity;BMP_temperature;BMP_pressure;BME280_temperature;BME280_humidity;BME280_pressure;Samples;Min_cycle;Max_cycle;Signal;HPM_P1;HPM_P2
2021/08/24 00:00:20;;;;;;;89.70;6.38;;;;;;;;;;4953120;28;20054;-76
2021/08/24 00:02:46;;;;;;;42.47;6.35;;;;;;;;;;4965709;28;20081;-76
2021/08/24 00:05:19;;;;;;;36.35;6.40;;;;;;;;;;4960331;28;20447;-76
2021/08/24 00:07:45;;;;;;;15.05;5.55;;;;;;;;;;4963401;28;20031;-76
2021/08/24 00:10:11;;;;;;;16.42;5.30;;;;;;;;;;4958069;28;20080;-76
2021/08/24 00:12:37;;;;;;;30.83;5.88;;;;;;;;;;4967263;28;20126;-76
2021/08/24 00:15:04;;;;;;;25.63;5.68;;;;;;;;;;4973170;28;20507;-76
2021/08/24 00:17:29;;;;;;;27.08;5.45;;;;;;;;;;4981401;28;20104;-76
2021/08/24 00:19:55;;;;;;;18.15;5.70;;;;;;;;;;4964628;28;20059;-76
2021/08/24 00:22:20;;;;;;;15.48;6.00;;;;;;;;;;4956922;28;20038;-76
2021/08/24 00:24:46;;;;;;;39.45;6.18;;;;;;;;;;4969152;28;20038;-76
2021/08/24 00:27:11;;;;;;;13.07;5.68;;;;;;;;;;4962494;28;20050;-76
2021/08/24 00:29:37;;;;;;;40.58;5.88;;;;;;;;;;4962540;28;20562;-76
2021/08/24 00:32:02;;;;;;;24.77;5.65;;;;;;;;;;4965185;28;20062;-76
2021/08/24 00:34:28;;;;;;;15.07;5.75;;;;;;;;;;4967525;28;20065;-76
2021/08/24 00:36:53;;;;;;;49.25;6.60;;;;;;;;;;4971810;28;20034;-76
2021/08/24 00:39:19;;;;;;;49.03;5.93;;;;;;;;;;4968949;28;20030;-76
2021/08/24 00:41:45;;;;;;;58.90;6.13;;;;;;;;;;4964573;28;20496;-75
2021/08/24 00:44:10;;;;;;;38.42;6.43;;;;;;;;;;4981597;28;20036;-76
2021/08/24 00:46:45;;;;;;;75.72;6.95;;;;;;;;;;4965653;28;20433;-76
2021/08/24 00:49:14;;;;;;;31.92;5.90;;;;;;;;;;4969912;28;20031;-76
2021/08/24 00:51:42;;;;;;;50.33;7.40;;;;;;;;;;4964806;28;20598;-76
2021/08/24 00:54:13;;;;;;;28.63;7.72;;;;;;;;;;4975293;28;20495;-76
2021/08/24 00:57:01;;;;;;;22.38;7.63;;;;;;;;;;4976037;28;20040;-76
2021/08/24 00:59:27;;;;;;;34.35;7.45;;;;;;;;;;4965196;28;20038;-76
2021/08/24 01:01:52;;;;;;;38.15;6.93;;;;;;;;;;4968260;28;20142;-76
2021/08/24 01:04:20;;;;;;;69.22;8.27;;;;;;;;;;4962395;28;20483;-76
2021/08/24 01:07:05;;;;;;;42.15;8.30;;;;;;;;;;4958467;28;20143;-77
2021/08/24 01:09:50;;;;;;;62.70;7.30;;;;;;;;;;4963924;28;20026;-76
2021/08/24 01:12:31;;;;;;;45.78;7.18;;;;;;;;;;4963940;28;20542;-77
2021/08/24 01:15:02;;;;;;;26.33;7.80;;;;;;;;;;4965529;28;20071;-77
2021/08/24 01:17:41;;;;;;;58.55;7.00;;;;;;;;;;4977454;28;20519;-76
2021/08/24 01:20:41;;;;;;;124.40;9.57;;;;;;;;;;4966989;28;20039;-76
2021/08/24 01:23:15;;;;;;;42.33;7.95;;;;;;;;;;4963220;28;20051;-76
2021/08/24 01:26:11;;;;;;;76.55;7.53;;;;;;;;;;4965148;28;20093;-77
2021/08/24 01:29:10;;;;;;;49.15;8.02;;;;;;;;;;4970583;28;20085;-76
2021/08/24 01:31:47;;;;;;;20.60;7.35;;;;;;;;;;4970053;28;20783;-76
2021/08/24 01:34:27;;;;;;;59.20;7.47;;;;;;;;;;4965379;28;20452;-76
2021/08/24 01:36:59;;;;;;;90.63;7.28;;;;;;;;;;4976678;28;20062;-77
2021/08/24 01:39:30;;;;;;;23.52;7.50;;;;;;;;;;4970481;28;20053;-76
2021/08/24 01:42:14;;;;;;;23.08;6.97;;;;;;;;;;4965978;28;20058;-76
2021/08/24 01:45:01;;;;;;;34.53;7.93;;;;;;;;;;4962894;28;20054;-76
2021/08/24 01:47:53;;;;;;;25.55;6.53;;;;;;;;;;4989390;28;20427;-76
2021/08/24 01:50:43;;;;;;;25.92;7.25;;;;;;;;;;4968134;28;20503;-76
2021/08/24 01:53:15;;;;;;;103.80;7.38;;;;;;;;;;4967073;28;20035;-76
2021/08/24 01:55:51;;;;;;;61.25;6.85;;;;;;;;;;4963188;28;20165;-76
2021/08/24 01:58:24;;;;;;;60.88;7.10;;;;;;;;;;4968869;28;20057;-76
2021/08/24 02:00:54;;;;;;;117.47;8.05;;;;;;;;;;4963049;28;20701;-76
2021/08/24 02:03:27;;;;;;;44.58;7.55;;;;;;;;;;4964874;28;20022;-76
2021/08/24 02:06:06;;;;;;;60.65;7.53;;;;;;;;;;4962438;28;20057;-76
2021/08/24 02:08:35;;;;;;;56.75;7.18;;;;;;;;;;4970953;28;20034;-76
2021/08/24 02:11:02;;;;;;;46.88;7.22;;;;;;;;;;4965206;28;20049;-76
2021/08/24 02:13:36;;;;;;;49.17;7.75;;;;;;;;;;4959460;28;20126;-76
2021/08/24 02:16:04;;;;;;;52.42;8.05;;;;;;;;;;4961865;28;20105;-76
2021/08/24 02:18:36;;;;;;;88.00;8.60;;;;;;;;;;4963359;28;20026;-76
2021/08/24 02:21:11;;;;;;;33.55;6.68;;;;;;;;;;4964696;28;20085;-76
2021/08/24 02:23:37;;;;;;;68.35;8.82;;;;;;;;;;4964108;28;20055;-76
2021/08/24 02:26:06;;;;;;;101.57;8.52;;;;;;;;;;4960453;28;20088;-76
2021/08/24 02:28:35;;;;;;;33.05;7.30;;;;;;;;;;4963268;28;20137;-75
2021/08/24 02:31:12;;;;;;;113.55;8.75;;;;;;;;;;4975599;28;20151;-76
2021/08/24 02:34:04;;;;;;;48.70;7.15;;;;;;;;;;4961997;28;20089;-77
2021/08/24 02:36:33;;;;;;;56.55;7.38;;;;;;;;;;4970334;28;20508;-76
2021/08/24 02:39:05;;;;;;;39.80;6.97;;;;;;;;;;4965166;28;20109;-76
2021/08/24 02:41:45;;;;;;;23.45;6.50;;;;;;;;;;4960574;28;20619;-76
2021/08/24 02:44:22;;;;;;;55.65;7.28;;;;;;;;;;4965459;28;20039;-76
2021/08/24 02:46:52;;;;;;;40.55;6.85;;;;;;;;;;4968702;28;20042;-76
2021/08/24 02:49:25;;;;;;;36.55;6.55;;;;;;;;;;4963659;28;20034;-75
2021/08/24 02:51:52;;;;;;;61.53;8.77;;;;;;;;;;4966982;28;20109;-76
2021/08/24 02:54:38;;;;;;;50.53;8.13;;;;;;;;;;4956315;28;20034;-76
2021/08/24 02:57:06;;;;;;;62.03;9.82;;;;;;;;;;4974412;28;20492;-75
2021/08/24 02:59:32;;;;;;;56.85;8.95;;;;;;;;;;4972271;28;20039;-76
2021/08/24 03:01:58;;;;;;;47.90;8.43;;;;;;;;;;4971576;28;20126;-76
2021/08/24 03:04:24;;;;;;;69.85;9.38;;;;;;;;;;4965501;28;20123;-76
2021/08/24 03:06:57;;;;;;;84.25;11.90;;;;;;;;;;4945707;28;20530;-76
2021/08/24 03:09:26;;;;;;;31.40;7.90;;;;;;;;;;4965838;28;20097;-76
2021/08/24 03:12:30;;;;;;;109.85;11.32;;;;;;;;;;4957310;28;20078;-76
2021/08/24 03:15:03;;;;;;;59.15;8.38;;;;;;;;;;4962003;28;20381;-75
2021/08/24 03:17:32;;;;;;;68.60;8.65;;;;;;;;;;4960897;28;20031;-76
2021/08/24 03:20:02;;;;;;;68.13;7.40;;;;;;;;;;4980694;28;20027;-76
2021/08/24 03:22:28;;;;;;;28.55;7.07;;;;;;;;;;4962082;28;20082;-76
2021/08/24 03:24:54;;;;;;;62.75;7.93;;;;;;;;;;4967686;28;20062;-75
2021/08/24 03:27:19;;;;;;;98.68;7.53;;;;;;;;;;4963296;28;20037;-76
2021/08/24 03:30:15;;;;;;;46.20;7.70;;;;;;;;;;4967369;28;20165;-76
2021/08/24 03:32:42;;;;;;;50.78;7.95;;;;;;;;;;4954013;28;20058;-75
2021/08/24 03:35:09;;;;;;;69.60;8.23;;;;;;;;;;4972833;28;20173;-76
2021/08/24 03:37:34;;;;;;;117.53;8.10;;;;;;;;;;4959015;28;20038;-76
2021/08/24 03:40:00;;;;;;;94.90;8.90;;;;;;;;;;4968441;28;20038;-76
2021/08/24 03:42:25;;;;;;;308.65;11.52;;;;;;;;;;4953061;28;20039;-76
2021/08/24 03:44:51;;;;;;;143.52;8.75;;;;;;;;;;4963117;28;20026;-76
2021/08/24 03:47:17;;;;;;;92.15;8.70;;;;;;;;;;4966965;28;20041;-76
2021/08/24 03:49:42;;;;;;;128.68;9.10;;;;;;;;;;4966847;28;20037;-76
2021/08/24 03:52:09;;;;;;;140.65;7.40;;;;;;;;;;4965467;28;20030;-76
2021/08/24 03:54:35;;;;;;;55.55;6.47;;;;;;;;;;4963572;28;20688;-76
2021/08/24 03:57:00;;;;;;;123.82;8.73;;;;;;;;;;4963493;28;20049;-76
2021/08/24 03:59:26;;;;;;;91.65;8.80;;;;;;;;;;4966734;28;20025;-76
2021/08/24 04:01:51;;;;;;;109.03;8.65;;;;;;;;;;4969948;28;20027;-76
2021/08/24 04:04:17;;;;;;;75.57;7.13;;;;;;;;;;4972643;28;20566;-76
2021/08/24 04:06:43;;;;;;;79.90;7.05;;;;;;;;;;4966260;28;20038;-77
2021/08/24 04:09:08;;;;;;;76.82;7.25;;;;;;;;;;4962031;28;20510;-76
2021/08/24 04:11:34;;;;;;;31.98;7.22;;;;;;;;;;4960770;28;20030;-76
2021/08/24 04:13:59;;;;;;;68.95;7.95;;;;;;;;;;4958057;28;20035;-76
2021/08/24 04:16:25;;;;;;;36.95;6.47;;;;;;;;;;4963106;28;20598;-76
2021/08/24 04:18:50;;;;;;;62.97;7.93;;;;;;;;;;4971193;28;20045;-76
2021/08/24 04:21:18;;;;;;;59.70;7.38;;;;;;;;;;4973200;28;20031;-76
2021/08/24 04:23:45;;;;;;;90.40;7.38;;;;;;;;;;4968180;28;20082;-76
2021/08/24 04:26:12;;;;;;;58.55;7.50;;;;;;;;;;4963905;28;20033;-76
2021/08/24 04:28:37;;;;;;;108.47;7.97;;;;;;;;;;4965598;28;20412;-76
2021/08/24 04:31:04;;;;;;;53.95;6.88;;;;;;;;;;4969737;28;20023;-76
2021/08/24 04:33:31;;;;;;;56.80;6.75;;;;;;;;;;4966297;28;20031;-76
2021/08/24 04:35:56;;;;;;;58.45;7.13;;;;;;;;;;4960044;28;20671;-76
2021/08/24 04:38:22;;;;;;;34.25;6.45;;;;;;;;;;4959367;28;20068;-76
2021/08/24 04:40:49;;;;;;;43.03;6.53;;;;;;;;;;4969094;28;20470;-76
2021/08/24 04:43:16;;;;;;;99.47;8.07;;;;;;;;;;4959798;28;20042;-76
2021/08/24 04:45:41;;;;;;;84.93;7.15;;;;;;;;;;4966805;28;20062;-77
2021/08/24 04:48:07;;;;;;;160.43;10.27;;;;;;;;;;4970664;28;20157;-76
2021/08/24 04:50:33;;;;;;;141.55;8.88;;;;;;;;;;4971765;28;20027;-76
2021/08/24 04:52:59;;;;;;;144.80;7.70;;;;;;;;;;4987961;28;20055;-76
2021/08/24 04:55:24;;;;;;;130.50;8.18;;;;;;;;;;4976082;28;20104;-76
2021/08/24 04:57:50;;;;;;;52.63;7.18;;;;;;;;;;4960396;28;20173;-75
2021/08/24 05:00:16;;;;;;;105.90;8.00;;;;;;;;;;4965113;28;20046;-76
2021/08/24 05:02:41;;;;;;;54.17;7.82;;;;;;;;;;4932452;28;20035;-75
2021/08/24 05:05:07;;;;;;;77.38;7.32;;;;;;;;;;4969860;28;20048;-76
2021/08/24 05:07:33;;;;;;;39.42;7.35;;;;;;;;;;4955505;28;20034;-75
2021/08/24 05:09:58;;;;;;;65.32;7.43;;;;;;;;;;4977159;28;20034;-76
2021/08/24 05:12:24;;;;;;;39.28;7.20;;;;;;;;;;4976123;28;20103;-76
2021/08/24 05:14:49;;;;;;;48.10;8.13;;;;;;;;;;4981312;28;20699;-76
2021/08/24 05:17:15;;;;;;;73.15;7.90;;;;;;;;;;4958656;28;20054;-76
2021/08/24 05:19:40;;;;;;;27.55;7.82;;;;;;;;;;4967522;28;20054;-76
2021/08/24 05:22:06;;;;;;;126.22;8.27;;;;;;;;;;4979793;28;20043;-75
2021/08/24 05:24:34;;;;;;;229.63;13.38;;;;;;;;;;4947407;28;20050;-76
2021/08/24 05:27:00;;;;;;;80.78;8.20;;;;;;;;;;4970704;28;20112;-76
2021/08/24 05:29:25;;;;;;;101.45;8.13;;;;;;;;;;4963274;28;20448;-76
2021/08/24 05:31:52;;;;;;;68.85;8.35;;;;;;;;;;4962347;28;20053;-76
2021/08/24 05:34:17;;;;;;;66.68;7.68;;;;;;;;;;4976244;28;20562;-76
2021/08/24 05:36:43;;;;;;;32.13;6.75;;;;;;;;;;4979014;28;20090;-76
2021/08/24 05:39:09;;;;;;;121.32;10.07;;;;;;;;;;4969887;28;20058;-76
2021/08/24 05:41:34;;;;;;;77.28;8.95;;;;;;;;;;4973275;28;20031;-75
2021/08/24 05:44:00;;;;;;;90.88;7.90;;;;;;;;;;4964176;28;20042;-76
2021/08/24 05:46:25;;;;;;;76.80;8.75;;;;;;;;;;4947754;28;20118;-76
2021/08/24 05:48:51;;;;;;;93.93;8.68;;;;;;;;;;4961266;28;20121;-76
2021/08/24 05:51:19;;;;;;;87.22;8.82;;;;;;;;;;4965230;28;20405;-76
2021/08/24 05:53:45;;;;;;;50.47;8.27;;;;;;;;;;4965619;28;20022;-76
2021/08/24 05:56:15;;;;;;;70.20;9.45;;;;;;;;;;4967594;28;20026;-76
2021/08/24 05:58:41;;;;;;;49.28;8.38;;;;;;;;;;4969763;28;20030;-76
2021/08/24 06:01:07;;;;;;;48.03;9.45;;;;;;;;;;4966181;28;20677;-76
2021/08/24 06:03:33;;;;;;;63.55;9.93;;;;;;;;;;4962508;28;20143;-75
2021/08/24 06:05:59;;;;;;;94.05;9.43;;;;;;;;;;4985519;28;20046;-75
2021/08/24 06:08:26;;;;;;;92.72;11.05;;;;;;;;;;4954053;28;20484;-76
2021/08/24 06:10:52;;;;;;;93.43;9.57;;;;;;;;;;4964788;28;20137;-75
2021/08/24 06:13:17;;;;;;;62.60;9.35;;;;;;;;;;4971473;28;20046;-76
2021/08/24 06:15:43;;;;;;;37.08;8.45;;;;;;;;;;4970850;28;20508;-76
2021/08/24 06:18:08;;;;;;;41.03;10.25;;;;;;;;;;4975144;28;20534;-75
2021/08/24 06:20:34;;;;;;;54.40;10.15;;;;;;;;;;4975916;28;20035;-76
2021/08/24 06:23:00;;;;;;;69.80;10.77;;;;;;;;;;4980006;28;20070;-76
2021/08/24 06:25:26;;;;;;;76.90;13.50;;;;;;;;;;4971123;28;20064;-75
2021/08/24 06:27:52;;;;;;;64.10;10.80;;;;;;;;;;4966312;28;20172;-76
2021/08/24 06:30:18;;;;;;;43.63;9.60;;;;;;;;;;4960619;28;20045;-75
2021/08/24 06:32:47;;;;;;;36.00;10.60;;;;;;;;;;4964860;28;20510;-76
2021/08/24 06:35:14;;;;;;;65.55;9.85;;;;;;;;;;4965044;28;20023;-76
2021/08/24 06:37:39;;;;;;;53.83;9.95;;;;;;;;;;4967565;28;20035;-75
2021/08/24 06:40:07;;;;;;;126.60;11.23;;;;;;;;;;4962237;28;20038;-75
2021/08/24 06:42:41;;;;;;;140.63;11.07;;;;;;;;;;4969954;28;20042;-76
2021/08/24 06:45:12;;;;;;;94.93;10.68;;;;;;;;;;4966210;28;20030;-76
2021/08/24 06:47:37;;;;;;;61.45;9.85;;;;;;;;;;4970180;28;20034;-76
2021/08/24 06:50:03;;;;;;;78.38;10.05;;;;;;;;;;4967511;28;20042;-75
2021/08/24 06:52:28;;;;;;;66.40;9.27;;;;;;;;;;4968620;28;20081;-76
2021/08/24 06:54:54;;;;;;;159.13;11.48;;;;;;;;;;4966662;28;20039;-76
2021/08/24 06:57:19;;;;;;;107.72;11.95;;;;;;;;;;4967010;28;20417;-75
2021/08/24 06:59:45;;;;;;;69.90;10.52;;;;;;;;;;4945543;28;20030;-76
2021/08/24 07:02:10;;;;;;;34.92;10.52;;;;;;;;;;4947248;28;20122;-75
2021/08/24 07:04:36;;;;;;;38.53;9.63;;;;;;;;;;4949011;28;20043;-75
2021/08/24 07:07:01;;;;;;;77.82;9.88;;;;;;;;;;4963538;28;20029;-76
2021/08/24 07:09:27;;;;;;;54.63;12.90;;;;;;;;;;4953652;28;20034;-76
2021/08/24 07:11:52;;;;;;;106.95;10.75;;;;;;;;;;4970689;28;20133;-76
2021/08/24 07:14:18;;;;;;;33.90;9.68;;;;;;;;;;4970726;28;20038;-75
2021/08/24 07:16:44;;;;;;;109.22;11.82;;;;;;;;;;4971732;28;20488;-75
2021/08/24 07:19:11;;;;;;;55.05;10.38;;;;;;;;;;4967012;28;20089;-75
2021/08/24 07:21:36;;;;;;;55.95;10.65;;;;;;;;;;4976836;28;20034;-75
2021/08/24 07:24:02;;;;;;;39.15;10.73;;;;;;;;;;4960191;28;20054;-75
2021/08/24 07:26:28;;;;;;;53.60;11.07;;;;;;;;;;4968426;28;20062;-76
2021/08/24 07:28:53;;;;;;;56.45;12.63;;;;;;;;;;4961446;28;20117;-76
2021/08/24 07:31:19;;;;;;;47.28;11.98;;;;;;;;;;4977579;28;20025;-76
2021/08/24 07:33:45;;;;;;;41.28;12.52;;;;;;;;;;4980516;28;20448;-76
2021/08/24 07:36:11;;;;;;;100.53;14.18;;;;;;;;;;4933763;28;20035;-76
2021/08/24 07:38:37;;;;;;;49.33;16.52;;;;;;;;;;4968409;28;20038;-75
2021/08/24 07:41:04;;;;;;;64.72;16.88;;;;;;;;;;4960716;28;20511;-75
2021/08/24 07:43:30;;;;;;;51.17;16.77;;;;;;;;;;4978346;28;20030;-76
2021/08/24 07:45:55;;;;;;;75.63;15.95;;;;;;;;;;4967165;28;20270;-76
2021/08/24 07:48:21;;;;;;;45.60;16.13;;;;;;;;;;4964435;28;20035;-76
2021/08/24 07:50:46;;;;;;;52.47;16.67;;;;;;;;;;4965892;28;20543;-75
2021/08/24 07:53:12;;;;;;;74.97;19.60;;;;;;;;;;4973519;28;20101;-76
2021/08/24 07:55:38;;;;;;;77.28;19.20;;;;;;;;;;4969629;28;20043;-76
2021/08/24 07:58:04;;;;;;;72.72;18.98;;;;;;;;;;4964383;28;20038;-76
2021/08/24 08:00:29;;;;;;;61.63;19.40;;;;;;;;;;4967504;28;20485;-75
2021/08/24 08:02:55;;;;;;;67.72;17.70;;;;;;;;;;4967500;28;20030;-76
2021/08/24 08:05:22;;;;;;;57.88;18.63;;;;;;;;;;4961233;28;20019;-76
2021/08/24 08:07:47;;;;;;;57.47;18.02;;;;;;;;;;4962560;28;20128;-76
2021/08/24 08:10:13;;;;;;;50.15;16.95;;;;;;;;;;4962858;28;20631;-76
2021/08/24 08:12:39;;;;;;;44.30;16.60;;;;;;;;;;4950536;28;20089;-75
2021/08/24 08:15:07;;;;;;;39.33;16.05;;;;;;;;;;4979890;28;20038;-76
2021/08/24 08:17:33;;;;;;;34.95;15.65;;;;;;;;;;4963347;28;20042;-76
2021/08/24 08:19:58;;;;;;;47.10;16.88;;;;;;;;;;4964443;28;20035;-76
2021/08/24 08:22:24;;;;;;;43.42;16.30;;;;;;;;;;4960757;28;20037;-76
2021/08/24 08:24:50;;;;;;;34.88;15.52;;;;;;;;;;4968950;28;20047;-78
2021/08/24 08:27:15;;;;;;;36.10;15.02;;;;;;;;;;4960939;28;20694;-78
2021/08/24 08:29:40;;;;;;;36.40;14.82;;;;;;;;;;4977602;28;20030;-75
2021/08/24 08:32:11;;;;;;;36.47;16.40;;;;;;;;;;4960658;28;20031;-74
2021/08/24 08:34:37;;;;;;;40.60;16.17;;;;;;;;;;4968988;28;20081;-75
2021/08/24 08:37:04;;;;;;;38.55;17.08;;;;;;;;;;4981399;28;20364;-75
2021/08/24 08:39:29;;;;;;;43.33;19.85;;;;;;;;;;4971543;28;20110;-75
2021/08/24 08:42:17;;;;;;;44.30;18.73;;;;;;;;;;4974959;28;20117;-75
2021/08/24 08:45:17;;;;;;;39.67;17.88;;;;;;;;;;4980373;28;20081;-75
2021/08/24 08:48:07;;;;;;;43.20;16.95;;;;;;;;;;4974714;28;20054;-75
2021/08/24 08:50:49;;;;;;;43.67;19.60;;;;;;;;;;4968221;28;20026;-75
2021/08/24 08:53:49;;;;;;;49.47;19.77;;;;;;;;;;4988357;28;20026;-75
2021/08/24 08:56:28;;;;;;;47.92;19.52;;;;;;;;;;4968778;28;20085;-75
2021/08/24 08:59:09;;;;;;;49.22;20.40;;;;;;;;;;4977230;28;20103;-75
2021/08/24 09:01:46;;;;;;;49.10;19.38;;;;;;;;;;4988465;28;20031;-74
2021/08/24 09:04:16;;;;;;;48.00;19.42;;;;;;;;;;4976246;28;20084;-75
2021/08/24 09:06:45;;;;;;;40.88;17.35;;;;;;;;;;4982938;28;20038;-75
2021/08/24 09:09:10;;;;;;;45.45;18.40;;;;;;;;;;4960925;28;20027;-75
2021/08/24 09:11:45;;;;;;;42.00;18.20;;;;;;;;;;4961616;28;20042;-75
2021/08/24 09:14:29;;;;;;;40.53;18.85;;;;;;;;;;4964803;28;20038;-76
2021/08/24 09:17:03;;;;;;;41.42;18.08;;;;;;;;;;4980433;28;20044;-75
2021/08/24 09:19:46;;;;;;;33.65;16.67;;;;;;;;;;4974321;28;20071;-76
2021/08/24 09:22:15;;;;;;;27.63;14.60;;;;;;;;;;4975429;28;20034;-76
2021/08/24 09:24:40;;;;;;;30.67;15.15;;;;;;;;;;4972795;28;20047;-75
2021/08/24 09:27:16;;;;;;;31.25;15.77;;;;;;;;;;4976207;28;20041;-76
2021/08/24 09:29:48;;;;;;;27.58;14.65;;;;;;;;;;4962962;28;20023;-76
2021/08/24 09:32:19;;;;;;;30.02;15.60;;;;;;;;;;4976626;28;20025;-77
2021/08/24 09:34:46;;;;;;;25.67;14.80;;;;;;;;;;4976670;28;20032;-76
2021/08/24 09:37:22;;;;;;;23.58;13.07;;;;;;;;;;4973410;28;20118;-76
2021/08/24 09:39:56;;;;;;;29.27;14.52;;;;;;;;;;4974103;28;20073;-76
2021/08/24 09:42:40;;;;;;;31.55;15.48;;;;;;;;;;4966099;28;20109;-78
2021/08/24 09:45:20;;;;;;;28.63;15.02;;;;;;;;;;4970441;28;20515;-77
2021/08/24 09:47:58;;;;;;;29.45;15.45;;;;;;;;;;4969724;28;20090;-77
2021/08/24 09:50:30;;;;;;;28.70;15.05;;;;;;;;;;4970667;28;20033;-77
2021/08/24 09:52:56;;;;;;;27.02;15.23;;;;;;;;;;4972016;28;20030;-79
2021/08/24 09:55:27;;;;;;;27.73;15.30;;;;;;;;;;4973289;28;20034;-77
2021/08/24 09:57:55;;;;;;;32.92;16.50;;;;;;;;;;4967679;28;20039;-76
2021/08/24 10:00:27;;;;;;;27.00;13.75;;;;;;;;;;4977841;28;20545;-76
2021/08/24 10:03:00;;;;;;;28.70;15.10;;;;;;;;;;4979682;28;20034;-77
2021/08/24 10:05:34;;;;;;;30.90;15.93;;;;;;;;;;4973545;28;20065;-77
2021/08/24 10:08:19;;;;;;;28.42;16.20;;;;;;;;;;4974645;28;20369;-77
2021/08/24 10:10:59;;;;;;;27.02;16.00;;;;;;;;;;4973562;28;20030;-77
2021/08/24 10:13:40;;;;;;;28.45;16.25;;;;;;;;;;4965135;28;20118;-78
2021/08/24 10:16:37;;;;;;;32.03;16.30;;;;;;;;;;4976660;28;20038;-77
2021/08/24 10:19:18;;;;;;;31.50;16.17;;;;;;;;;;4964844;28;20046;-77
2021/08/24 10:21:55;;;;;;;28.25;15.27;;;;;;;;;;4978476;28;20026;-77
2021/08/24 10:24:35;;;;;;;26.00;15.00;;;;;;;;;;4971506;28;20105;-77
2021/08/24 10:27:06;;;;;;;24.33;14.07;;;;;;;;;;4973705;28;20111;-77
2021/08/24 10:29:35;;;;;;;30.83;15.70;;;;;;;;;;4968781;28;20026;-77
2021/08/24 10:32:05;;;;;;;24.77;14.77;;;;;;;;;;4967701;28;20519;-78
2021/08/24 10:34:37;;;;;;;26.45;14.70;;;;;;;;;;4969138;28;20039;-78
2021/08/24 10:38:01;;;;;;;26.63;15.77;;;;;;;;;;4979800;28;20575;-78
2021/08/24 10:40:42;;;;;;;23.67;15.05;;;;;;;;;;4952494;28;20039;-77
2021/08/24 10:43:10;;;;;;;28.48;15.82;;;;;;;;;;4969483;28;20408;-77
2021/08/24 10:45:42;;;;;;;26.48;15.65;;;;;;;;;;4970359;28;20031;-78
2021/08/24 10:48:12;;;;;;;;;;;;;;;;;;4969221;28;20035;-78
2021/08/24 10:50:51;;;;;;;41.70;16.77;;;;;;;;;;4972185;28;19910;-77
2021/08/24 10:53:32;;;;;;;29.83;15.38;;;;;;;;;;4979055;28;20031;-78
2021/08/24 10:56:20;;;;;;;28.30;15.98;;;;;;;;;;4967324;28;20084;-77
2021/08/24 10:59:12;;;;;;;27.88;14.10;;;;;;;;;;4973074;28;20033;-77
2021/08/24 11:01:46;;;;;;;30.10;15.40;;;;;;;;;;4963443;28;20034;-78
2021/08/24 11:04:34;;;;;;;22.15;12.60;;;;;;;;;;4988397;28;20038;-77
2021/08/24 11:07:26;;;;;;;25.40;14.07;;;;;;;;;;4969474;28;20046;-77
2021/08/24 11:10:21;;;;;;;22.17;13.52;;;;;;;;;;4966997;28;20060;-77
2021/08/24 11:13:02;;;;;;;32.10;14.27;;;;;;;;;;4948678;28;20385;-78
2021/08/24 11:15:31;;;;;;;23.08;13.63;;;;;;;;;;4968802;28;20105;-78
2021/08/24 11:18:02;;;;;;;23.55;13.00;;;;;;;;;;4976419;28;20026;-78
2021/08/24 11:20:36;;;;;;;23.98;14.35;;;;;;;;;;4974170;28;20023;-77
2021/08/24 11:23:10;;;;;;;21.65;13.07;;;;;;;;;;4968430;28;20045;-79
2021/08/24 11:25:44;;;;;;;27.25;12.93;;;;;;;;;;4970527;28;20550;-79
2021/08/24 11:28:25;;;;;;;22.70;13.73;;;;;;;;;;4968915;28;20721;-77
2021/08/24 11:31:18;;;;;;;22.80;12.20;;;;;;;;;;4976132;28;20084;-77
2021/08/24 11:34:01;;;;;;;29.90;13.43;;;;;;;;;;4974121;28;20092;-80
2021/08/24 11:36:36;;;;;;;20.77;11.80;;;;;;;;;;4976263;28;20019;-77
2021/08/24 11:39:07;;;;;;;22.42;11.70;;;;;;;;;;4975981;28;20037;-79
2021/08/24 11:41:36;;;;;;;24.23;11.25;;;;;;;;;;4974068;28;20061;-77
2021/08/24 11:44:13;;;;;;;16.73;10.65;;;;;;;;;;4967890;28;20054;-79
2021/08/24 11:47:08;;;;;;;24.02;11.93;;;;;;;;;;4972734;28;20089;-78
2021/08/24 11:49:40;;;;;;;19.75;10.80;;;;;;;;;;4951223;28;20074;-78
2021/08/24 11:52:46;;;;;;;21.95;12.77;;;;;;;;;;4972441;28;20061;-77
2021/08/24 11:55:22;;;;;;;20.60;10.75;;;;;;;;;;4967591;28;20042;-77
2021/08/24 11:58:14;;;;;;;20.33;11.65;;;;;;;;;;4970646;28;20030;-76
2021/08/24 12:00:40;;;;;;;21.55;11.38;;;;;;;;;;4976951;28;20077;-77
2021/08/24 12:03:13;;;;;;;21.75;9.55;;;;;;;;;;4991321;28;20059;-79
2021/08/24 12:06:13;;;;;;;19.58;10.73;;;;;;;;;;4967474;28;20030;-77
2021/08/24 12:08:50;;;;;;;21.55;11.73;;;;;;;;;;4968451;28;20039;-77
2021/08/24 12:11:18;;;;;;;19.00;11.35;;;;;;;;;;4969502;28;20057;-77
2021/08/24 12:13:47;;;;;;;19.38;11.30;;;;;;;;;;4969468;28;20049;-77
2021/08/24 12:16:23;;;;;;;16.23;9.27;;;;;;;;;;4978125;28;20444;-76
2021/08/24 12:19:07;;;;;;;21.48;11.65;;;;;;;;;;4962611;28;20089;-77
2021/08/24 12:21:55;;;;;;;21.30;10.82;;;;;;;;;;4970983;28;20026;-77
2021/08/24 12:24:24;;;;;;;19.90;10.85;;;;;;;;;;4966458;28;20134;-78
2021/08/24 12:27:13;;;;;;;29.35;11.05;;;;;;;;;;4976312;28;20034;-77
2021/08/24 12:29:49;;;;;;;18.30;10.55;;;;;;;;;;4967232;28;20042;-77
2021/08/24 12:32:20;;;;;;;22.25;10.68;;;;;;;;;;4973374;28;20023;-78
2021/08/24 12:35:07;;;;;;;18.00;9.98;;;;;;;;;;4977992;28;20105;-77
2021/08/24 12:37:32;;;;;;;17.77;9.95;;;;;;;;;;4955603;28;20581;-77
2021/08/24 12:40:26;;;;;;;21.48;9.48;;;;;;;;;;4974609;28;20029;-78
2021/08/24 12:43:01;;;;;;;18.40;8.15;;;;;;;;;;4969558;28;20069;-77
2021/08/24 12:45:27;;;;;;;13.00;8.02;;;;;;;;;;4972162;28;20015;-79
2021/08/24 12:48:13;;;;;;;15.07;6.60;;;;;;;;;;4978338;28;20110;-78
2021/08/24 12:50:38;;;;;;;13.15;7.45;;;;;;;;;;4969658;28;20046;-79
2021/08/24 12:53:23;;;;;;;10.43;6.15;;;;;;;;;;4980671;28;20657;-78
2021/08/24 12:55:49;;;;;;;10.57;6.28;;;;;;;;;;4990985;28;20022;-78
2021/08/24 12:58:24;;;;;;;11.93;6.38;;;;;;;;;;4977082;28;20044;-78
2021/08/24 13:01:12;;;;;;;9.70;5.90;;;;;;;;;;4974419;28;20033;-78
2021/08/24 13:03:39;;;;;;;9.82;4.93;;;;;;;;;;4976670;28;20035;-78
2021/08/24 13:06:22;;;;;;;9.35;4.40;;;;;;;;;;4977606;28;20030;-77
2021/08/24 13:08:50;;;;;;;10.95;4.85;;;;;;;;;;4970249;28;20088;-78
2021/08/24 13:11:30;;;;;;;15.73;4.82;;;;;;;;;;4969217;28;20092;-78
2021/08/24 13:14:01;;;;;;;9.50;4.72;;;;;;;;;;4975881;28;20090;-78
2021/08/24 13:16:40;;;;;;;6.80;4.10;;;;;;;;;;4975049;28;20108;-77
2021/08/24 13:19:18;;;;;;;8.48;4.40;;;;;;;;;;4974816;28;20120;-77
2021/08/24 13:22:05;;;;;;;13.75;4.93;;;;;;;;;;4975639;28;20665;-77
2021/08/24 13:24:45;;;;;;;11.50;4.00;;;;;;;;;;4977430;28;20054;-77
2021/08/24 13:27:35;;;;;;;7.80;4.63;;;;;;;;;;4973817;28;20030;-77
2021/08/24 13:30:08;;;;;;;7.30;4.63;;;;;;;;;;4975891;28;20026;-77
2021/08/24 13:32:40;;;;;;;13.63;5.30;;;;;;;;;;4967306;28;20392;-79
2021/08/24 13:35:26;;;;;;;;;;;;;;;;;;4978218;28;20500;-77
2021/08/24 13:38:06;;;;;;;7.00;4.45;;;;;;;;;;4972049;28;19918;-77
2021/08/24 13:40:34;;;;;;;7.60;3.92;;;;;;;;;;4972057;28;20093;-78
2021/08/24 13:43:00;;;;;;;7.10;4.07;;;;;;;;;;4979586;28;20073;-78
2021/08/24 13:45:29;;;;;;;8.15;3.65;;;;;;;;;;4981670;28;20054;-79
2021/08/24 13:47:58;;;;;;;15.13;4.28;;;;;;;;;;4973234;28;20035;-78
2021/08/24 13:50:40;;;;;;;8.65;3.90;;;;;;;;;;4976346;28;20027;-77
2021/08/24 13:53:19;;;;;;;9.40;4.18;;;;;;;;;;4990321;28;20037;-79
2021/08/24 13:55:56;;;;;;;7.28;3.17;;;;;;;;;;4963508;28;20035;-78
2021/08/24 13:58:36;;;;;;;6.80;3.15;;;;;;;;;;4970875;28;20109;-78
2021/08/24 14:01:24;;;;;;;6.22;4.18;;;;;;;;;;4970872;28;20030;-79
2021/08/24 14:03:52;;;;;;;7.68;3.72;;;;;;;;;;4975503;28;20030;-78
2021/08/24 14:06:34;;;;;;;9.55;4.40;;;;;;;;;;4970130;28;20165;-78
2021/08/24 14:09:27;;;;;;;6.88;3.40;;;;;;;;;;4976151;28;20100;-83
2021/08/24 14:11:57;;;;;;;7.00;4.35;;;;;;;;;;4977154;28;20803;-77
2021/08/24 14:14:48;;;;;;;11.00;4.90;;;;;;;;;;4978449;28;20034;-79
2021/08/24 14:17:20;;;;;;;;;;;;;;;;;;4966292;28;20030;-79
2021/08/24 14:19:46;;;;;;;8.38;4.57;;;;;;;;;;4977898;28;19917;-78
2021/08/24 14:22:14;;;;;;;8.85;4.22;;;;;;;;;;4967875;28;20034;-79
2021/08/24 14:24:39;;;;;;;12.45;5.07;;;;;;;;;;4974657;28;20115;-80
2021/08/24 14:27:08;;;;;;;8.85;5.10;;;;;;;;;;4982180;28;20034;-77
2021/08/24 14:29:37;;;;;;;13.48;6.28;;;;;;;;;;4975141;28;20041;-76
2021/08/24 14:32:05;;;;;;;17.98;5.45;;;;;;;;;;4968073;28;20034;-77
2021/08/24 14:34:30;;;;;;;11.38;6.60;;;;;;;;;;4972786;28;20038;-77
2021/08/24 14:37:04;;;;;;;12.48;7.07;;;;;;;;;;4977817;28;20114;-78
2021/08/24 14:39:32;;;;;;;12.63;6.97;;;;;;;;;;4966503;28;20045;-76
2021/08/24 14:42:02;;;;;;;14.07;7.90;;;;;;;;;;4977063;28;20109;-78
2021/08/24 14:44:44;;;;;;;13.25;7.93;;;;;;;;;;4975454;28;20030;-78
2021/08/24 14:47:33;;;;;;;11.52;8.68;;;;;;;;;;4968203;28;20206;-77
2021/08/24 14:49:59;;;;;;;13.68;7.43;;;;;;;;;;4966245;28;20031;-77
2021/08/24 14:52:31;;;;;;;14.48;8.80;;;;;;;;;;4972283;28;20026;-78
2021/08/24 14:55:23;;;;;;;14.27;8.77;;;;;;;;;;4969145;28;20061;-77